Time;durP1;ratioP1;P1;durP2;ratioP2;P2;SDS_P1;SDS_P2;PMS_P1;PMS_P2;Temp;Humidity;BMP_temperature;BMP_pressure;BME280_temperature;BME280_humidity;BME280_pressure;Samples;Min_cycle;Max_cycle;Signal;HPM_P1;HPM_P2
2023/11/03 12:14:35;;;;;;;0.30;0.30;;;;;;;;;;7396270;19;20144;-91
2023/11/03 12:17:02;;;;;;;0.30;0.30;;;;;;;;;;7395508;19;20212;-92
2023/11/03 12:19:31;;;;;;;0.20;0.20;;;;;;;;;;7393231;19;20141;-91
2023/11/03 12:21:57;;;;;;;0.30;0.30;;;;;;;;;;7395247;19;20163;-92
2023/11/03 12:24:25;;;;;;;0.30;0.30;;;;;;;;;;7393375;19;20660;-92
2023/11/03 12:26:53;;;;;;;0.30;0.30;;;;;;;;;;7394354;19;20140;-89
2023/11/03 12:29:29;;;;;;;0.20;0.20;;;;;;;;;;7398333;19;20133;-89
2023/11/03 12:32:01;;;;;;;0.53;0.53;;;;;;;;;;7401696;19;20142;-91
2023/11/03 12:34:29;;;;;;;0.30;0.30;;;;;;;;;;7397451;19;20172;-89
2023/11/03 12:36:57;;;;;;;0.30;0.30;;;;;;;;;;7400157;19;20144;-88
2023/11/03 12:39:25;;;;;;;1.07;0.83;;;;;;;;;;7399725;19;20137;-90
2023/11/03 12:42:11;;;;;;;0.40;0.40;;;;;;;;;;7395352;19;20144;-87
2023/11/03 12:44:56;;;;;;;0.40;0.40;;;;;;;;;;7398765;19;20169;-87
2023/11/03 12:47:38;;;;;;;0.30;0.30;;;;;;;;;;7397504;19;20200;-88
2023/11/03 12:50:34;;;;;;;0.30;0.30;;;;;;;;;;7397725;19;20149;-88
2023/11/03 12:53:05;;;;;;;0.30;0.30;;;;;;;;;;7394817;19;20168;-91
2023/11/03 12:55:36;;;;;;;0.30;0.30;;;;;;;;;;7395944;19;20144;-90
2023/11/03 12:58:11;;;;;;;0.20;0.20;;;;;;;;;;7398362;19;20488;-95
2023/11/03 13:00:38;;;;;;;0.30;0.30;;;;;;;;;;7393683;19;20136;-91
2023/11/03 13:03:06;;;;;;;0.30;0.30;;;;;;;;;;7394856;19;20521;-93
2023/11/03 13:05:33;;;;;;;0.30;0.30;;;;;;;;;;7395669;19;20153;-92
2023/11/03 13:08:00;;;;;;;0.20;0.20;;;;;;;;;;7394714;19;20741;-91
2023/11/03 13:10:30;;;;;;;0.20;0.20;;;;;;;;;;7394947;19;20609;-92
2023/11/03 13:12:59;;;;;;;0.30;0.30;;;;;;;;;;7392386;19;20156;-91
2023/11/03 13:15:27;;;;;;;0.30;0.30;;;;;;;;;;7392153;19;20141;-95
2023/11/03 13:17:54;;;;;;;0.30;0.30;;;;;;;;;;7394110;19;20141;-92
2023/11/03 13:20:21;;;;;;;0.30;0.30;;;;;;;;;;7394262;19;20141;-87
2023/11/03 13:22:49;;;;;;;0.30;0.30;;;;;;;;;;7398744;19;20228;-88
2023/11/03 13:25:17;;;;;;;0.20;0.20;;;;;;;;;;7395946;19;20499;-89
2023/11/03 13:27:45;;;;;;;0.30;0.30;;;;;;;;;;7396532;19;20149;-88
2023/11/03 13:30:12;;;;;;;0.30;0.30;;;;;;;;;;7395954;19;20148;-89
2023/11/03 13:32:41;;;;;;;0.30;0.30;;;;;;;;;;7395668;19;20141;-88
2023/11/03 13:35:10;;;;;;;0.30;0.30;;;;;;;;;;7396956;19;20137;-89
2023/11/03 13:37:38;;;;;;;0.20;0.20;;;;;;;;;;7394336;19;20143;-91
2023/11/03 13:40:06;;;;;;;0.30;0.30;;;;;;;;;;7389209;19;20141;-91
2023/11/03 13:42:33;;;;;;;0.50;0.50;;;;;;;;;;7389681;19;20553;-92
2023/11/03 13:45:00;;;;;;;0.30;0.30;;;;;;;;;;7389353;19;20156;-91
2023/11/03 13:47:27;;;;;;;0.30;0.30;;;;;;;;;;7388115;19;20487;-91
2023/11/03 13:49:56;;;;;;;0.30;0.30;;;;;;;;;;7390890;19;20141;-90
2023/11/03 13:52:37;;;;;;;0.20;0.20;;;;;;;;;;7390867;19;20132;-89
2023/11/03 13:55:04;;;;;;;0.30;0.30;;;;;;;;;;7393297;19;20213;-91
2023/11/03 13:57:31;;;;;;;0.23;0.23;;;;;;;;;;7397350;19;20125;-92
2023/11/03 13:59:57;;;;;;;0.30;0.30;;;;;;;;;;7399732;19;20125;-90
2023/11/03 14:02:28;;;;;;;0.30;0.30;;;;;;;;;;7396115;19;20137;-89
2023/11/03 14:04:55;;;;;;;0.30;0.30;;;;;;;;;;7394010;19;20180;-92
2023/11/03 14:07:24;;;;;;;0.30;0.30;;;;;;;;;;7398395;19;20159;-93
2023/11/03 14:09:51;;;;;;;0.30;0.30;;;;;;;;;;7395364;19;20566;-91
2023/11/03 14:12:19;;;;;;;0.20;0.20;;;;;;;;;;7395018;19;20604;-92
2023/11/03 14:14:48;;;;;;;0.30;0.30;;;;;;;;;;7398449;19;20172;-93
2023/11/03 14:17:15;;;;;;;0.30;0.30;;;;;;;;;;7409470;19;20613;-92
2023/11/03 14:19:42;;;;;;;0.30;0.30;;;;;;;;;;7409589;19;20220;-94
2023/11/03 14:22:09;;;;;;;0.20;0.20;;;;;;;;;;7399425;19;20140;-94
2023/11/03 14:24:36;;;;;;;0.30;0.30;;;;;;;;;;7395828;19;20177;-94
2023/11/03 14:27:06;;;;;;;0.30;0.30;;;;;;;;;;7399195;19;20144;-93
2023/11/03 14:29:37;;;;;;;0.30;0.30;;;;;;;;;;7410348;19;20141;-93
2023/11/03 14:32:05;;;;;;;0.30;0.30;;;;;;;;;;7408225;19;20219;-93
2023/11/03 14:34:32;;;;;;;0.30;0.30;;;;;;;;;;7390823;19;20234;-91
2023/11/03 14:37:01;;;;;;;0.30;0.30;;;;;;;;;;7383333;19;20141;-91
2023/11/03 14:39:30;;;;;;;0.30;0.30;;;;;;;;;;7393584;19;20815;-91
2023/11/03 14:41:58;;;;;;;0.20;0.20;;;;;;;;;;7396785;19;20136;-90
2023/11/03 14:44:27;;;;;;;0.30;0.30;;;;;;;;;;7395345;19;20166;-91
2023/11/03 14:46:53;;;;;;;0.30;0.30;;;;;;;;;;7393658;19;20636;-92
2023/11/03 14:49:20;;;;;;;0.30;0.30;;;;;;;;;;7393834;19;20144;-92
2023/11/03 14:51:47;;;;;;;0.30;0.30;;;;;;;;;;7384814;19;20141;-91
2023/11/03 14:54:15;;;;;;;0.30;0.30;;;;;;;;;;7389524;19;20166;-92
2023/11/03 14:56:41;;;;;;;0.30;0.30;;;;;;;;;;7394358;19;20141;-91
2023/11/03 14:59:09;;;;;;;0.30;0.30;;;;;;;;;;7392468;19;20137;-91
2023/11/03 15:01:37;;;;;;;0.30;0.30;;;;;;;;;;7393511;19;20236;-91
2023/11/03 15:04:08;;;;;;;0.30;0.30;;;;;;;;;;7389907;19;20558;-92
2023/11/03 15:06:35;;;;;;;0.30;0.30;;;;;;;;;;7390061;19;20578;-92
2023/11/03 15:09:02;;;;;;;0.50;0.50;;;;;;;;;;7393034;19;20145;-91
2023/11/03 15:11:29;;;;;;;0.30;0.30;;;;;;;;;;7394151;19;20167;-91
2023/11/03 15:13:58;;;;;;;0.27;0.27;;;;;;;;;;7392587;19;20175;-92
2023/11/03 15:16:28;;;;;;;0.50;0.50;;;;;;;;;;7390206;19;20204;-91
2023/11/03 15:18:56;;;;;;;0.30;0.30;;;;;;;;;;7394185;19;20141;-91
2023/11/03 15:21:23;;;;;;;0.20;0.20;;;;;;;;;;7392940;19;20141;-92
2023/11/03 15:23:50;;;;;;;0.30;0.30;;;;;;;;;;7390698;19;20176;-91
2023/11/03 15:26:18;;;;;;;0.30;0.30;;;;;;;;;;7396085;19;20609;-92
2023/11/03 15:28:44;;;;;;;0.20;0.20;;;;;;;;;;7394223;19;20141;-93
2023/11/03 15:31:11;;;;;;;0.27;0.27;;;;;;;;;;7389312;19;20144;-91
2023/11/03 15:33:39;;;;;;;0.30;0.30;;;;;;;;;;7390753;19;20512;-91
2023/11/03 15:36:07;;;;;;;0.30;0.30;;;;;;;;;;7392223;19;20164;-91
2023/11/03 15:38:35;;;;;;;1.70;0.93;;;;;;;;;;7387896;19;20485;-91
2023/11/03 15:41:03;;;;;;;0.30;0.30;;;;;;;;;;7386399;19;21346;-92
2023/11/03 15:43:30;;;;;;;0.30;0.30;;;;;;;;;;7389291;19;20187;-92
2023/11/03 15:46:02;;;;;;;0.20;0.20;;;;;;;;;;7394250;19;20137;-90
2023/11/03 15:48:35;;;;;;;0.30;0.30;;;;;;;;;;7391067;19;20145;-92
2023/11/03 15:51:04;;;;;;;0.20;0.20;;;;;;;;;;7392084;19;20545;-89
2023/11/03 15:53:32;;;;;;;0.30;0.30;;;;;;;;;;7391133;19;20175;-91
2023/11/03 15:55:59;;;;;;;0.30;0.30;;;;;;;;;;7391965;19;20140;-90
2023/11/03 15:58:36;;;;;;;0.30;0.30;;;;;;;;;;7388556;19;20140;-91
2023/11/03 16:01:03;;;;;;;0.20;0.20;;;;;;;;;;7392618;19;20185;-90
2023/11/03 16:03:43;;;;;;;;;;;;;;;;;;;;;
2023/11/03 16:06:22;;;;;;;0.30;0.30;;;;;;;;;;7396477;19;20236;-90
2023/11/03 16:08:50;;;;;;;0.80;0.80;;;;;;;;;;7394744;19;20196;-90
2023/11/03 16:11:17;;;;;;;0.20;0.20;;;;;;;;;;7400226;19;20151;-90
2023/11/03 16:13:44;;;;;;;0.30;0.30;;;;;;;;;;7394089;19;20164;-88
2023/11/03 16:16:11;;;;;;;0.30;0.30;;;;;;;;;;7392530;19;20128;-87
2023/11/03 16:18:38;;;;;;;0.30;0.30;;;;;;;;;;7393297;19;20137;-88
2023/11/03 16:21:05;;;;;;;0.30;0.30;;;;;;;;;;7392376;19;20155;-91
2023/11/03 16:23:32;;;;;;;0.30;0.30;;;;;;;;;;7397942;19;20148;-90
2023/11/03 16:26:01;;;;;;;0.30;0.30;;;;;;;;;;7395670;19;20141;-89
2023/11/03 16:28:30;;;;;;;0.30;0.30;;;;;;;;;;7394907;19;20144;-89
2023/11/03 16:30:59;;;;;;;0.30;0.30;;;;;;;;;;7394310;19;20364;-91
2023/11/03 16:33:25;;;;;;;0.20;0.20;;;;;;;;;;7390154;19;20365;-90
2023/11/03 16:35:52;;;;;;;0.28;0.28;;;;;;;;;;7386923;19;20341;-90
2023/11/03 16:38:19;;;;;;;0.30;0.30;;;;;;;;;;7388230;19;20369;-91
2023/11/03 16:40:46;;;;;;;0.40;0.40;;;;;;;;;;7389089;19;20349;-92
2023/11/03 16:43:13;;;;;;;0.30;0.30;;;;;;;;;;7388194;19;20340;-91
2023/11/03 16:45:40;;;;;;;0.30;0.30;;;;;;;;;;7391021;19;20383;-90
2023/11/03 16:48:07;;;;;;;0.30;0.30;;;;;;;;;;7389641;19;20340;-89
2023/11/03 16:50:49;;;;;;;0.20;0.20;;;;;;;;;;7380340;19;20352;-90
2023/11/03 16:53:18;;;;;;;0.20;0.20;;;;;;;;;;7386429;19;20352;-86
2023/11/03 16:55:49;;;;;;;0.50;0.50;;;;;;;;;;7394503;19;20365;-88
2023/11/03 16:58:17;;;;;;;0.30;0.30;;;;;;;;;;7389216;19;20421;-88
2023/11/03 17:00:46;;;;;;;0.25;0.25;;;;;;;;;;7396311;19;20360;-87
2023/11/03 17:03:13;;;;;;;0.10;0.10;;;;;;;;;;7389284;19;20493;-91
2023/11/03 17:05:42;;;;;;;0.30;0.30;;;;;;;;;;7391619;19;20356;-93
2023/11/03 17:08:09;;;;;;;0.40;0.40;;;;;;;;;;7387563;19;20352;-93
2023/11/03 17:10:38;;;;;;;0.70;0.70;;;;;;;;;;7389494;19;20912;-93
2023/11/03 17:13:08;;;;;;;0.20;0.20;;;;;;;;;;7395072;19;20382;-94
2023/11/03 17:15:35;;;;;;;0.23;0.23;;;;;;;;;;7394295;19;20355;-94
2023/11/03 17:18:02;;;;;;;0.50;0.50;;;;;;;;;;7392799;19;20848;-86
2023/11/03 17:20:30;;;;;;;0.40;0.40;;;;;;;;;;7389110;19;20379;-93
2023/11/03 17:23:02;;;;;;;0.30;0.30;;;;;;;;;;7385811;19;20365;-93
2023/11/03 17:25:29;;;;;;;0.30;0.30;;;;;;;;;;7388427;19;20879;-93
2023/11/03 17:27:56;;;;;;;0.20;0.20;;;;;;;;;;7389861;19;20352;-93
2023/11/03 17:30:22;;;;;;;0.20;0.20;;;;;;;;;;7391201;19;20883;-93
2023/11/03 17:32:51;;;;;;;0.50;0.50;;;;;;;;;;7391219;19;20674;-90
2023/11/03 17:35:21;;;;;;;0.40;0.40;;;;;;;;;;7394675;19;20371;-90
2023/11/03 17:37:48;;;;;;;0.30;0.30;;;;;;;;;;7394235;19;20369;-90
2023/11/03 17:40:16;;;;;;;0.30;0.30;;;;;;;;;;7397255;19;20348;-89
2023/11/03 17:42:44;;;;;;;0.30;0.30;;;;;;;;;;7395087;19;20345;-89
2023/11/03 17:45:13;;;;;;;0.30;0.30;;;;;;;;;;7396196;19;20363;-92
2023/11/03 17:47:40;;;;;;;0.30;0.30;;;;;;;;;;7397159;19;20364;-93
2023/11/03 17:50:07;;;;;;;0.30;0.30;;;;;;;;;;7397249;19;20915;-93
2023/11/03 17:52:33;;;;;;;0.38;0.38;;;;;;;;;;7394806;19;20930;-92
2023/11/03 17:55:01;;;;;;;0.20;0.20;;;;;;;;;;7393492;19;20341;-91
2023/11/03 17:57:28;;;;;;;0.30;0.30;;;;;;;;;;7394852;19;20939;-91
2023/11/03 17:59:55;;;;;;;0.30;0.30;;;;;;;;;;7396286;19;20883;-91
2023/11/03 18:02:25;;;;;;;0.50;0.50;;;;;;;;;;7397188;19;20402;-91
2023/11/03 18:04:52;;;;;;;0.30;0.30;;;;;;;;;;7395108;19;20371;-92
2023/11/03 18:07:19;;;;;;;0.20;0.20;;;;;;;;;;7395847;19;20923;-92
2023/11/03 18:09:47;;;;;;;0.20;0.20;;;;;;;;;;7398204;19;20353;-92
2023/11/03 18:12:21;;;;;;;0.30;0.30;;;;;;;;;;7395524;19;20352;-90
2023/11/03 18:14:48;;;;;;;0.32;0.32;;;;;;;;;;7393444;19;20355;-93
2023/11/03 18:17:14;;;;;;;0.30;0.30;;;;;;;;;;7399248;19;20375;-90
2023/11/03 18:19:42;;;;;;;0.65;0.40;;;;;;;;;;7395023;19;20353;-92
2023/11/03 18:22:09;;;;;;;0.20;0.20;;;;;;;;;;7395410;19;20367;-90
2023/11/03 18:24:37;;;;;;;0.60;0.60;;;;;;;;;;7396782;19;20339;-89
2023/11/03 18:27:05;;;;;;;0.45;0.45;;;;;;;;;;7395558;19;20898;-92
2023/11/03 18:29:32;;;;;;;0.50;0.50;;;;;;;;;;7396692;19;20337;-90
2023/11/03 18:31:59;;;;;;;0.40;0.40;;;;;;;;;;7397547;19;20365;-87
2023/11/03 18:34:26;;;;;;;0.27;0.27;;;;;;;;;;7399360;19;20368;-88
2023/11/03 18:36:53;;;;;;;0.30;0.30;;;;;;;;;;7401643;19;20357;-87
2023/11/03 18:39:20;;;;;;;0.20;0.20;;;;;;;;;;7395254;19;21031;-87
2023/11/03 18:41:48;;;;;;;0.30;0.30;;;;;;;;;;7397215;19;20885;-87
2023/11/03 18:44:14;;;;;;;0.40;0.40;;;;;;;;;;7394412;19;20388;-90
2023/11/03 18:46:41;;;;;;;0.80;0.80;;;;;;;;;;7397753;19;20369;-86
2023/11/03 18:49:09;;;;;;;0.30;0.30;;;;;;;;;;7397618;19;21140;-88
2023/11/03 18:51:38;;;;;;;0.50;0.50;;;;;;;;;;7393751;19;20412;-88
2023/11/03 18:54:06;;;;;;;0.30;0.30;;;;;;;;;;7393051;19;20349;-88
2023/11/03 18:56:36;;;;;;;0.30;0.30;;;;;;;;;;7396643;19;20369;-88
2023/11/03 18:59:23;;;;;;;0.40;0.40;;;;;;;;;;7396781;19;20351;-88
2023/11/03 19:02:09;;;;;;;0.30;0.30;;;;;;;;;;7402687;19;20340;-88
2023/11/03 19:04:56;;;;;;;0.20;0.20;;;;;;;;;;7401620;19;20353;-89
2023/11/03 19:07:43;;;;;;;0.35;0.35;;;;;;;;;;7398331;19;20345;-92
2023/11/03 19:10:11;;;;;;;0.40;0.40;;;;;;;;;;7396917;19;20363;-91
2023/11/03 19:12:46;;;;;;;0.30;0.30;;;;;;;;;;7394607;19;20368;-90
2023/11/03 19:15:22;;;;;;;0.50;0.50;;;;;;;;;;7397331;19;20363;-90
2023/11/03 19:17:49;;;;;;;0.40;0.40;;;;;;;;;;7398822;19;20650;-89
2023/11/03 19:20:20;;;;;;;0.30;0.30;;;;;;;;;;7396136;19;20729;-88
2023/11/03 19:22:47;;;;;;;0.35;0.30;;;;;;;;;;7401655;19;20743;-88
2023/11/03 19:25:15;;;;;;;0.70;0.70;;;;;;;;;;7396730;19;20349;-88
2023/11/03 19:27:42;;;;;;;0.50;0.50;;;;;;;;;;7395032;19;20353;-86
2023/11/03 19:30:09;;;;;;;0.30;0.30;;;;;;;;;;7398277;19;20324;-87
2023/11/03 19:32:35;;;;;;;0.30;0.30;;;;;;;;;;7395187;19;20345;-89
2023/11/03 19:35:03;;;;;;;0.30;0.30;;;;;;;;;;7396409;19;20348;-88
2023/11/03 19:37:30;;;;;;;0.20;0.20;;;;;;;;;;7395096;19;20425;-87
2023/11/03 19:39:58;;;;;;;0.50;0.50;;;;;;;;;;7396788;19;20904;-88
2023/11/03 19:42:45;;;;;;;0.40;0.40;;;;;;;;;;7398249;19;20380;-89
2023/11/03 19:45:17;;;;;;;2.30;0.70;;;;;;;;;;7392274;19;20363;-94
2023/11/03 19:47:46;;;;;;;0.30;0.30;;;;;;;;;;7387892;19;20333;-94
2023/11/03 19:50:15;;;;;;;0.47;0.47;;;;;;;;;;7391412;19;20354;-93
2023/11/03 19:52:42;;;;;;;0.43;0.43;;;;;;;;;;7394677;19;20352;-92
2023/11/03 19:55:09;;;;;;;0.20;0.20;;;;;;;;;;7396396;19;20360;-93
2023/11/03 19:57:40;;;;;;;0.20;0.20;;;;;;;;;;7394291;19;20423;-93
2023/11/03 20:00:08;;;;;;;0.30;0.30;;;;;;;;;;7394667;19;20352;-90
2023/11/03 20:02:35;;;;;;;0.60;0.60;;;;;;;;;;7389048;19;20419;-92
2023/11/03 20:05:04;;;;;;;0.40;0.40;;;;;;;;;;7392031;19;20357;-93
2023/11/03 20:07:32;;;;;;;0.40;0.40;;;;;;;;;;7389073;19;20916;-92
2023/11/03 20:09:59;;;;;;;0.30;0.30;;;;;;;;;;7391659;19;20364;-92
2023/11/03 20:12:26;;;;;;;0.30;0.30;;;;;;;;;;7387849;19;20364;-92
2023/11/03 20:14:52;;;;;;;0.30;0.30;;;;;;;;;;7390938;19;20336;-92
2023/11/03 20:17:20;;;;;;;0.50;0.50;;;;;;;;;;7388132;19;20369;-93
2023/11/03 20:19:50;;;;;;;0.47;0.47;;;;;;;;;;7388887;19;21014;-91
2023/11/03 20:22:16;;;;;;;0.30;0.30;;;;;;;;;;7388071;19;20364;-92
2023/11/03 20:24:43;;;;;;;0.40;0.40;;;;;;;;;;7387865;19;20341;-93
2023/11/03 20:27:12;;;;;;;0.30;0.30;;;;;;;;;;7390287;19;20365;-91
2023/11/03 20:29:41;;;;;;;0.30;0.30;;;;;;;;;;7390456;19;20367;-92
2023/11/03 20:32:08;;;;;;;0.30;0.30;;;;;;;;;;7388504;19;20357;-92
2023/11/03 20:34:35;;;;;;;0.35;0.35;;;;;;;;;;7389915;19;20436;-92
2023/11/03 20:37:03;;;;;;;0.52;0.52;;;;;;;;;;7387604;19;20329;-89
2023/11/03 20:39:29;;;;;;;0.50;0.50;;;;;;;;;;7396914;19;20357;-88
2023/11/03 20:41:56;;;;;;;0.50;0.50;;;;;;;;;;7393821;19;20356;-91
2023/11/03 20:44:24;;;;;;;0.40;0.40;;;;;;;;;;7396338;19;20917;-89
2023/11/03 20:46:55;;;;;;;0.35;0.35;;;;;;;;;;7396680;19;20352;-90
2023/11/03 20:49:22;;;;;;;0.57;0.38;;;;;;;;;;7394249;19;20378;-87
2023/11/03 20:51:56;;;;;;;0.20;0.20;;;;;;;;;;7395646;19;20755;-87
2023/11/03 20:54:25;;;;;;;0.32;0.32;;;;;;;;;;7395302;19;20432;-90
2023/11/03 20:56:52;;;;;;;0.30;0.30;;;;;;;;;;7398663;19;20320;-87
2023/11/03 20:59:19;;;;;;;0.80;0.80;;;;;;;;;;7389227;19;20385;-86
2023/11/03 21:01:46;;;;;;;0.40;0.40;;;;;;;;;;7388106;19;20717;-90
2023/11/03 21:04:13;;;;;;;0.40;0.40;;;;;;;;;;7386094;19;20404;-89
2023/11/03 21:06:40;;;;;;;0.30;0.30;;;;;;;;;;7373312;19;20424;-89
2023/11/03 21:09:08;;;;;;;0.20;0.20;;;;;;;;;;7380331;19;20356;-91
2023/11/03 21:11:35;;;;;;;0.35;0.35;;;;;;;;;;7382529;19;20351;-90
2023/11/03 21:14:02;;;;;;;0.30;0.30;;;;;;;;;;7387464;19;20372;-91
2023/11/03 21:16:29;;;;;;;0.32;0.32;;;;;;;;;;7370087;19;20432;-90
2023/11/03 21:18:56;;;;;;;0.80;0.40;;;;;;;;;;7386022;19;20343;-90
2023/11/03 21:21:26;;;;;;;0.30;0.30;;;;;;;;;;7392410;19;20344;-90
2023/11/03 21:23:53;;;;;;;0.30;0.30;;;;;;;;;;7391768;19;20341;-91
2023/11/03 21:26:20;;;;;;;0.20;0.20;;;;;;;;;;7392667;19;20374;-90
2023/11/03 21:28:49;;;;;;;0.20;0.20;;;;;;;;;;7391394;19;20356;-90
2023/11/03 21:31:17;;;;;;;0.40;0.40;;;;;;;;;;7394543;19;20779;-85
2023/11/03 21:33:43;;;;;;;0.60;0.60;;;;;;;;;;7391831;19;20353;-86
2023/11/03 21:36:11;;;;;;;0.30;0.30;;;;;;;;;;7389808;19;20375;-88
2023/11/03 21:38:38;;;;;;;0.30;0.30;;;;;;;;;;7390578;19;21184;-85
2023/11/03 21:41:06;;;;;;;0.57;0.40;;;;;;;;;;7393015;19;20352;-85
2023/11/03 21:43:33;;;;;;;0.30;0.30;;;;;;;;;;7387167;19;20361;-88
2023/11/03 21:46:00;;;;;;;0.20;0.20;;;;;;;;;;7389343;19;20416;-86
2023/11/03 21:48:27;;;;;;;0.40;0.40;;;;;;;;;;7386693;19;20656;-85
2023/11/03 21:50:53;;;;;;;0.30;0.30;;;;;;;;;;7388157;19;20360;-89
2023/11/03 21:53:20;;;;;;;0.30;0.30;;;;;;;;;;7387031;19;20822;-89
2023/11/03 21:55:57;;;;;;;0.30;0.30;;;;;;;;;;7384260;19;20743;-93
2023/11/03 21:58:24;;;;;;;0.30;0.30;;;;;;;;;;7389193;19;20341;-93
2023/11/03 22:00:51;;;;;;;0.20;0.20;;;;;;;;;;7392533;19;20347;-92
2023/11/03 22:03:18;;;;;;;0.30;0.30;;;;;;;;;;7388118;19;20345;-91
2023/11/03 22:05:45;;;;;;;0.30;0.30;;;;;;;;;;7385561;19;20340;-93
2023/11/03 22:08:12;;;;;;;0.30;0.30;;;;;;;;;;7385480;19;20425;-94
2023/11/03 22:10:38;;;;;;;0.30;0.30;;;;;;;;;;7393524;19;20355;-95
2023/11/03 22:13:06;;;;;;;0.20;0.20;;;;;;;;;;7392676;19;20830;-93
2023/11/03 22:15:32;;;;;;;0.30;0.30;;;;;;;;;;7399514;19;20356;-94
2023/11/03 22:17:59;;;;;;;0.25;0.25;;;;;;;;;;7401640;19;20685;-93
2023/11/03 22:20:26;;;;;;;0.50;0.50;;;;;;;;;;7394012;19;20345;-96
2023/11/03 22:22:53;;;;;;;0.30;0.30;;;;;;;;;;7392258;19;20357;-93
2023/11/03 22:25:20;;;;;;;0.30;0.30;;;;;;;;;;7394281;19;20340;-95
2023/11/03 22:27:48;;;;;;;0.20;0.20;;;;;;;;;;7392612;19;20365;-93
2023/11/03 22:30:15;;;;;;;0.27;0.27;;;;;;;;;;7392397;19;20416;-94
2023/11/03 22:32:42;;;;;;;0.28;0.28;;;;;;;;;;7410982;19;20368;-94
2023/11/03 22:35:09;;;;;;;0.40;0.40;;;;;;;;;;7404104;19;20875;-94
2023/11/03 22:37:38;;;;;;;0.30;0.30;;;;;;;;;;7412201;19;20133;-95
2023/11/03 22:40:09;;;;;;;0.30;0.30;;;;;;;;;;7403483;19;20151;-93
2023/11/03 22:42:36;;;;;;;0.30;0.30;;;;;;;;;;7412566;19;20144;-93
2023/11/03 22:45:03;;;;;;;0.20;0.20;;;;;;;;;;7405088;19;20550;-93
2023/11/03 22:47:31;;;;;;;0.30;0.30;;;;;;;;;;7403750;19;20137;-93
2023/11/03 22:49:58;;;;;;;0.30;0.30;;;;;;;;;;7400420;19;20849;-92
2023/11/03 22:52:30;;;;;;;0.20;0.20;;;;;;;;;;7404961;19;20155;-94
2023/11/03 22:54:58;;;;;;;0.50;0.50;;;;;;;;;;7413389;19;20168;-95
2023/11/03 22:57:25;;;;;;;0.30;0.30;;;;;;;;;;7410443;19;20143;-94
2023/11/03 22:59:52;;;;;;;0.30;0.30;;;;;;;;;;7407530;19;20148;-93
2023/11/03 23:02:19;;;;;;;0.30;0.30;;;;;;;;;;7409847;19;20204;-94
